Time;durP1;ratioP1;P1;durP2;ratioP2;P2;SDS_P1;SDS_P2;PMS_P1;PMS_P2;Temp;Humidity;BMP_temperature;BMP_pressure;BME280_temperature;BME280_humidity;BME280_pressure;Samples;Min_cycle;Max_cycle;Signal;HPM_P1;HPM_P2
2022/04/20 00:00:06;;;;;;;21.42;14.45;;;;;;;7.16;66.42;101037.75;5079889;27;20095;-81
2022/04/20 00:02:31;;;;;;;20.45;14.77;;;;;;;7.21;66.32;101042.78;5096802;27;20028;-81
2022/04/20 00:04:57;;;;;;;19.75;14.40;;;;;;;7.23;66.71;101041.00;5079735;27;20019;-81
2022/04/20 00:07:22;;;;;;;18.77;14.18;;;;;;;7.24;66.49;101045.25;5079474;27;20034;-81
2022/04/20 00:09:48;;;;;;;20.48;14.77;;;;;;;7.26;66.74;101043.47;5113333;27;20027;-81
2022/04/20 00:12:13;;;;;;;18.70;14.00;;;;;;;7.25;66.63;101035.78;5096227;27;20051;-81
2022/04/20 00:14:39;;;;;;;21.17;15.43;;;;;;;7.23;66.80;101028.13;5079666;27;20035;-81
2022/04/20 00:17:05;;;;;;;18.67;14.10;;;;;;;7.33;66.65;101036.44;5096411;27;20076;-81
2022/04/20 00:19:30;;;;;;;21.08;14.30;;;;;;;7.25;66.87;101041.78;5096153;28;20027;-81
2022/04/20 00:21:56;;;;;;;18.17;14.20;;;;;;;7.15;67.41;101036.06;5113456;27;20134;-81
2022/04/20 00:24:21;;;;;;;17.73;14.05;;;;;;;6.99;67.16;101024.53;5096489;28;20286;-81
2022/04/20 00:26:47;;;;;;;20.15;14.80;;;;;;;7.08;67.22;101037.13;5113324;28;20034;-81
2022/04/20 00:29:12;;;;;;;18.48;13.35;;;;;;;7.06;67.01;101023.44;5113156;28;20533;-81
2022/04/20 00:31:38;;;;;;;14.73;11.80;;;;;;;7.16;66.71;101042.88;5096375;28;20037;-81
2022/04/20 00:34:03;;;;;;;15.95;11.50;;;;;;;7.11;66.37;101049.91;5096528;28;20023;-81
2022/04/20 00:36:29;;;;;;;15.40;11.40;;;;;;;7.08;66.31;101041.41;5113352;28;20023;-81
2022/04/20 00:38:54;;;;;;;13.88;11.48;;;;;;;7.13;66.49;101037.84;5096146;28;20031;-81
2022/04/20 00:41:20;;;;;;;15.43;10.70;;;;;;;6.99;66.22;101021.13;5079145;28;20038;-81
2022/04/20 00:43:45;;;;;;;14.65;10.98;;;;;;;7.03;66.45;101026.13;5096328;28;20080;-81
2022/04/20 00:46:11;;;;;;;13.98;10.63;;;;;;;7.07;66.30;101025.13;5095995;28;20034;-81
2022/04/20 00:48:38;;;;;;;14.38;10.65;;;;;;;7.08;66.89;101044.84;5095942;28;20031;-81
2022/04/20 00:51:03;;;;;;;13.15;10.60;;;;;;;6.99;66.43;101014.25;5096361;28;20023;-81
2022/04/20 00:53:29;;;;;;;14.55;11.50;;;;;;;7.10;66.22;101037.94;5096164;28;20030;-81
2022/04/20 00:55:54;;;;;;;15.77;11.27;;;;;;;6.94;66.36;101020.38;5112849;28;20023;-81
2022/04/20 00:58:20;;;;;;;14.85;10.98;;;;;;;7.06;66.22;101005.44;5096079;28;20019;-81
2022/04/20 01:00:45;;;;;;;14.00;11.18;;;;;;;7.26;66.15;101022.03;5096412;28;20400;-80
2022/04/20 01:03:11;;;;;;;13.25;10.90;;;;;;;7.22;66.28;101017.88;5079228;28;20027;-81
2022/04/20 01:05:36;;;;;;;13.60;10.95;;;;;;;7.17;66.38;101013.69;5096115;28;20451;-81
2022/04/20 01:08:02;;;;;;;14.20;10.65;;;;;;;6.93;66.38;100977.53;5079091;28;20038;-81
2022/04/20 01:10:28;;;;;;;14.60;10.48;;;;;;;6.97;66.56;100985.13;5130643;28;20508;-81
2022/04/20 01:12:53;;;;;;;13.45;10.18;;;;;;;7.09;66.20;101005.38;5095557;28;20019;-81
2022/04/20 01:15:19;;;;;;;13.05;9.57;;;;;;;7.04;66.24;101002.06;5112923;28;20354;-81
2022/04/20 01:17:45;;;;;;;13.60;10.10;;;;;;;7.06;66.29;100999.44;5112934;28;20412;-81
2022/04/20 01:20:14;;;;;;;13.88;10.10;;;;;;;7.04;66.70;101012.38;5112742;28;20735;-81
2022/04/20 01:22:41;;;;;;;13.73;10.13;;;;;;;7.02;66.57;101003.84;5113037;28;20031;-81
2022/04/20 01:25:07;;;;;;;12.68;10.00;;;;;;;6.90;66.69;100991.34;5078857;28;20428;-81
2022/04/20 01:27:32;;;;;;;13.05;9.68;;;;;;;6.87;66.85;100988.84;5096015;28;20033;-81
2022/04/20 01:29:58;;;;;;;14.70;10.52;;;;;;;6.99;66.79;101009.09;5096006;28;20098;-81
2022/04/20 01:32:23;;;;;;;15.85;10.40;;;;;;;6.92;66.77;101002.44;5081835;27;20480;-81
2022/04/20 01:34:49;;;;;;;14.30;10.30;;;;;;;6.93;66.98;101003.25;5099101;27;20076;-81
2022/04/20 01:37:14;;;;;;;16.33;10.23;;;;;;;6.94;66.91;101010.94;5116188;27;20030;-80
2022/04/20 01:39:40;;;;;;;12.93;10.13;;;;;;;6.82;66.98;101011.28;5115779;27;20488;-81
2022/04/20 01:42:07;;;;;;;16.20;10.73;;;;;;;6.88;67.57;101031.66;5099593;27;20503;-81
2022/04/20 01:44:32;;;;;;;15.27;11.10;;;;;;;6.73;67.13;101012.38;5099417;27;20434;-81
2022/04/20 01:46:58;;;;;;;14.27;10.70;;;;;;;6.85;67.61;101037.75;5082195;27;20545;-81
2022/04/20 01:49:23;;;;;;;13.90;10.48;;;;;;;6.90;66.94;101051.34;5115887;27;20038;-81
2022/04/20 01:51:52;;;;;;;13.70;10.95;;;;;;;6.87;66.78;101043.69;5099102;27;20404;-81
2022/04/20 01:54:19;;;;;;;15.88;11.82;;;;;;;6.79;67.20;101037.94;5099086;27;20067;-81
2022/04/20 01:56:51;;;;;;;17.73;11.80;;;;;;;6.86;67.81;101056.59;5082453;27;20027;-81
2022/04/20 01:59:17;;;;;;;15.98;11.25;;;;;;;6.71;67.57;101033.88;5082934;27;20038;-81
2022/04/20 02:04:26;;;;;;;16.42;11.45;;;;;;;6.83;67.95;101056.69;5104056;27;20111;-81
2022/04/20 02:06:51;;;;;;;13.95;11.05;;;;;;;6.82;67.80;101042.13;5116202;27;20061;-81
2022/04/20 02:09:17;;;;;;;14.88;10.70;;;;;;;6.76;67.77;101027.69;5115886;27;20027;-81
2022/04/20 02:11:43;;;;;;;16.17;11.30;;;;;;;6.97;67.13;101054.56;5115477;27;20511;-81
2022/04/20 02:14:08;;;;;;;16.65;10.95;;;;;;;6.99;67.37;101055.41;5115849;27;20062;-81
2022/04/20 02:16:34;;;;;;;14.88;10.80;;;;;;;7.01;67.20;101055.34;5099027;27;20045;-81
2022/04/20 02:18:59;;;;;;;13.25;9.88;;;;;;;7.01;66.98;101052.78;5081829;27;20492;-81
2022/04/20 02:21:25;;;;;;;15.40;10.55;;;;;;;6.85;67.13;101042.03;5098606;27;20026;-80
2022/04/20 02:23:50;;;;;;;14.52;11.02;;;;;;;6.95;66.86;101066.63;5114998;27;20027;-81
2022/04/20 02:26:16;;;;;;;13.32;10.73;;;;;;;6.87;67.16;101069.41;5098354;27;20080;-81
2022/04/20 02:28:41;;;;;;;14.93;10.98;;;;;;;6.89;67.54;101069.38;5098756;27;20066;-81
2022/04/20 02:31:07;;;;;;;13.95;10.77;;;;;;;6.85;67.54;101058.31;5081587;27;20118;-81
2022/04/20 02:33:32;;;;;;;15.15;11.52;;;;;;;6.83;67.31;101046.41;5098160;27;20027;-81
2022/04/20 02:35:57;;;;;;;13.95;10.95;;;;;;;6.73;66.89;101019.25;5097923;27;20031;-81
2022/04/20 02:38:23;;;;;;;15.65;11.13;;;;;;;6.85;66.88;101058.31;5097862;27;20060;-81
2022/04/20 02:40:51;;;;;;;14.45;11.05;;;;;;;6.95;67.30;101069.22;5081324;27;20059;-81
2022/04/20 02:43:17;;;;;;;14.27;11.63;;;;;;;6.88;67.19;101062.53;5081185;27;20088;-81
2022/04/20 02:45:42;;;;;;;15.57;11.05;;;;;;;6.86;66.87;101062.56;5098074;27;20023;-81
2022/04/20 02:48:08;;;;;;;13.30;11.38;;;;;;;6.90;66.65;101061.63;5115068;27;20404;-81
2022/04/20 02:50:33;;;;;;;15.70;11.75;;;;;;;6.85;67.48;101052.34;5098105;27;20035;-81
2022/04/20 02:52:59;;;;;;;16.17;11.27;;;;;;;6.68;67.04;101042.47;5097628;27;20069;-81
2022/04/20 02:55:24;;;;;;;16.40;12.25;;;;;;;6.83;67.69;101067.81;5114706;27;20035;-81
2022/04/20 02:57:50;;;;;;;15.27;11.90;;;;;;;6.77;67.76;101061.97;5080966;27;20037;-81
2022/04/20 03:00:16;;;;;;;15.05;11.77;;;;;;;6.82;67.91;101070.44;5081079;27;20066;-81
2022/04/20 03:02:41;;;;;;;18.23;12.27;;;;;;;6.65;67.84;101052.00;5081001;27;20023;-81
2022/04/20 03:05:07;;;;;;;14.82;11.95;;;;;;;6.77;67.83;101067.97;5114802;27;20400;-82
2022/04/20 03:07:32;;;;;;;14.73;11.75;;;;;;;6.73;68.02;101063.78;5097142;27;20022;-81
2022/04/20 03:09:58;;;;;;;12.48;8.40;;;;;;;8.85;63.26;101052.19;5080673;27;20470;-84
2022/04/20 03:12:23;;;;;;;12.45;9.68;;;;;;;9.75;58.74;101069.53;5097265;27;20508;-83
2022/04/20 03:14:51;;;;;;;15.43;11.80;;;;;;;9.14;59.99;101076.09;5097445;27;20062;-83
2022/04/20 03:17:17;;;;;;;17.60;11.73;;;;;;;8.65;61.31;101076.97;5132862;27;20076;-83
2022/04/20 03:19:42;;;;;;;16.45;11.90;;;;;;;8.34;62.57;101086.56;5097259;27;20023;-83
2022/04/20 03:22:08;;;;;;;16.23;11.82;;;;;;;8.21;62.78;101086.97;5132116;27;20385;-83
2022/04/20 03:24:33;;;;;;;14.80;9.30;;;;;;;10.42;57.84;101081.56;5097091;27;20484;-83
2022/04/20 03:26:59;;;;;;;12.55;9.32;;;;;;;11.97;52.33;101078.16;5097345;27;20472;-83
2022/04/20 03:29:24;;;;;;;16.27;9.48;;;;;;;11.55;52.44;101049.88;5111194;27;20027;-83
2022/04/20 03:31:50;;;;;;;14.98;10.15;;;;;;;10.66;53.97;101090.03;5095312;27;20027;-84
2022/04/20 03:34:15;;;;;;;13.73;10.63;;;;;;;9.85;56.04;101051.94;5096356;27;20046;-85
2022/04/20 03:36:41;;;;;;;74.88;13.90;;;;;;;9.43;58.15;101062.13;5096302;27;20031;-84
2022/04/20 03:39:06;;;;;;;42.03;10.95;;;;;;;8.75;58.67;101061.16;5113602;27;20035;-84
2022/04/20 03:41:32;;;;;;;74.35;13.52;;;;;;;8.54;59.50;101052.38;5113995;27;20019;-84
2022/04/20 03:43:57;;;;;;;36.28;10.70;;;;;;;8.09;61.11;101056.44;5096542;27;20031;-84
2022/04/20 03:46:24;;;;;;;14.10;10.93;;;;;;;7.97;62.27;101065.41;5113216;27;20023;-84
2022/04/20 03:48:50;;;;;;;41.72;14.70;;;;;;;7.78;63.09;101065.13;5097042;27;20038;-84
2022/04/20 03:51:15;;;;;;;34.08;13.98;;;;;;;7.72;63.02;101070.44;5096444;27;20457;-84
2022/04/20 03:53:41;;;;;;;16.30;12.52;;;;;;;7.64;63.35;101057.78;5095789;27;20068;-85
2022/04/20 03:56:06;;;;;;;15.05;11.13;;;;;;;7.63;62.28;101074.13;5096264;27;20031;-84
2022/04/20 03:58:32;;;;;;;13.00;9.50;;;;;;;7.42;62.91;101059.31;5078992;27;20495;-84
2022/04/20 04:00:58;;;;;;;12.60;9.32;;;;;;;7.22;63.66;101052.19;5096486;27;20076;-85
2022/04/20 04:03:23;;;;;;;11.40;8.98;;;;;;;7.35;64.09;101086.97;5130368;27;20027;-82
2022/04/20 04:05:49;;;;;;;12.82;8.93;;;;;;;6.94;64.92;101054.66;5110919;27;20094;-80
2022/04/20 04:08:14;;;;;;;13.35;9.63;;;;;;;7.21;65.15;101101.97;5130321;27;20054;-80
2022/04/20 04:10:40;;;;;;;13.35;9.57;;;;;;;7.13;64.42;101088.44;5096003;27;20436;-80
2022/04/20 04:13:05;;;;;;;12.05;8.68;;;;;;;6.93;64.88;101070.97;5113467;27;20035;-79
2022/04/20 04:15:31;;;;;;;21.60;15.02;;;;;;;7.22;64.46;101097.66;5113320;27;20495;-81
2022/04/20 04:18:00;;;;;;;15.88;9.80;;;;;;;7.14;64.30;101088.41;5123949;27;20393;-80
2022/04/20 04:20:28;;;;;;;15.63;9.75;;;;;;;7.09;64.49;101103.13;5100401;28;20063;-80
2022/04/20 04:22:54;;;;;;;15.15;9.43;;;;;;;6.95;65.03;101092.34;5113528;27;20031;-80
2022/04/20 04:25:20;;;;;;;12.65;9.68;;;;;;;6.99;65.65;101101.69;5107487;28;20450;-80
2022/04/20 04:27:46;;;;;;;13.43;9.88;;;;;;;7.04;64.84;101104.97;5066855;28;20066;-86
2022/04/20 04:30:11;;;;;;;12.40;9.32;;;;;;;6.95;64.10;101081.22;5114574;27;20430;-84
2022/04/20 04:32:37;;;;;;;12.60;9.75;;;;;;;7.09;64.20;101103.13;5106846;28;20023;-83
2022/04/20 04:35:03;;;;;;;14.98;9.60;;;;;;;7.10;64.33;101109.97;5096014;28;20050;-84
2022/04/20 04:37:28;;;;;;;14.18;10.00;;;;;;;7.06;64.42;101094.63;5096440;28;20471;-89
2022/04/20 04:39:54;;;;;;;13.10;10.35;;;;;;;7.16;64.22;101120.06;5079450;28;20051;-92
2022/04/20 04:42:19;;;;;;;11.25;9.27;;;;;;;7.29;63.70;101112.03;5080413;28;20412;-84
2022/04/20 04:44:45;;;;;;;13.95;10.00;;;;;;;7.24;63.42;101101.03;5111715;28;20038;-85
2022/04/20 04:49:55;;;;;;;13.50;8.88;;;;;;;7.19;62.30;101086.56;5120143;27;20055;-91
2022/04/20 04:52:20;;;;;;;11.60;8.35;;;;;;;7.10;63.32;101078.25;5077631;28;20480;-86
2022/04/20 04:54:46;;;;;;;11.52;8.82;;;;;;;7.26;63.10;101094.94;5091662;28;20544;-91
2022/04/20 04:57:12;;;;;;;14.20;9.18;;;;;;;7.31;63.51;101105.97;5070536;28;20059;-88
2022/04/20 04:59:38;;;;;;;14.57;9.48;;;;;;;7.35;63.20;101094.69;5078351;28;20111;-84
2022/04/20 05:02:04;;;;;;;12.00;9.07;;;;;;;7.30;63.27;101085.41;5100668;28;20032;-85
2022/04/20 05:04:30;;;;;;;12.13;8.90;;;;;;;7.37;62.98;101098.06;5108867;27;20072;-82
2022/04/20 05:06:56;;;;;;;12.38;9.32;;;;;;;7.22;63.01;101077.91;5106279;27;20066;-84
2022/04/20 05:09:22;;;;;;;13.38;9.65;;;;;;;7.29;63.68;101087.16;5122691;27;20411;-83
2022/04/20 05:11:49;;;;;;;15.93;9.45;;;;;;;7.42;63.31;101106.50;5104237;27;20046;-84
2022/04/20 05:14:15;;;;;;;13.32;9.30;;;;;;;7.40;62.48;101097.16;5129687;27;20463;-87
2022/04/20 05:16:44;;;;;;;13.40;9.43;;;;;;;7.45;62.20;101103.84;5096757;27;20089;-87
2022/04/20 05:19:10;;;;;;;14.98;9.63;;;;;;;7.34;62.56;101079.28;5091457;27;20084;-82
2022/04/20 05:21:35;;;;;;;19.83;12.30;;;;;;;7.52;62.58;101095.94;5105091;27;20050;-90
2022/04/20 05:24:01;;;;;;;15.90;10.98;;;;;;;7.48;62.11;101102.94;5089728;27;20042;-90
2022/04/20 05:26:26;;;;;;;17.67;10.60;;;;;;;7.37;62.13;101092.91;5097195;27;20039;-86
2022/04/20 05:28:52;;;;;;;15.07;10.52;;;;;;;7.26;63.13;101104.38;5086836;27;20497;-85
2022/04/20 05:31:18;;;;;;;16.17;9.85;;;;;;;7.27;63.38;101100.94;5086740;27;20039;-83
2022/04/20 05:33:44;;;;;;;14.27;9.98;;;;;;;7.36;62.82;101104.09;5088059;27;20500;-84
2022/04/20 05:36:09;;;;;;;15.93;11.52;;;;;;;7.34;63.36;101108.44;5082884;27;20349;-83
2022/04/20 05:44:03;;;;;;;15.88;10.80;;;;;;;7.37;63.17;101102.34;5101458;27;20086;-83
2022/04/20 05:46:29;;;;;;;16.77;11.68;;;;;;;7.41;63.52;101103.97;5082491;27;20488;-90
2022/04/20 05:48:54;;;;;;;16.17;11.82;;;;;;;7.34;64.05;101098.16;5083874;27;20393;-84
2022/04/20 05:51:20;;;;;;;17.20;11.85;;;;;;;7.40;63.64;101089.41;5098044;27;20038;-84
2022/04/20 05:53:45;;;;;;;17.30;12.40;;;;;;;7.24;63.77;101094.13;5116898;27;20035;-84
2022/04/20 05:56:11;;;;;;;19.25;13.30;;;;;;;7.23;64.21;101084.75;5081542;27;20451;-85
2022/04/20 05:58:36;;;;;;;18.05;13.38;;;;;;;7.25;64.58;101080.38;5084468;27;20145;-85
2022/04/20 06:01:02;;;;;;;18.33;12.40;;;;;;;7.18;64.14;101056.56;5099435;27;20110;-84
2022/04/20 06:03:27;;;;;;;18.33;12.52;;;;;;;7.38;64.01;101068.03;5088227;27;20028;-83
2022/04/20 06:05:53;;;;;;;16.50;12.25;;;;;;;7.48;63.58;101077.19;5130106;27;20420;-88
2022/04/20 06:08:19;;;;;;;21.08;15.07;;;;;;;7.69;63.00;101094.56;5104454;27;20031;-84
2022/04/20 06:10:46;;;;;;;19.75;13.05;;;;;;;7.74;63.18;101103.00;5082701;27;20061;-80
2022/04/20 06:13:12;;;;;;;20.02;12.23;;;;;;;7.81;62.51;101097.66;5071884;27;20034;-86
2022/04/20 06:15:38;;;;;;;18.50;12.77;;;;;;;7.68;62.48;101080.00;5080837;27;20027;-85
2022/04/20 06:18:03;;;;;;;17.48;13.02;;;;;;;7.82;62.93;101091.63;5084053;27;20696;-91
2022/04/20 06:20:29;;;;;;;16.88;12.55;;;;;;;7.92;62.82;101101.59;5073285;27;20042;-89
2022/04/20 06:22:54;;;;;;;17.92;12.70;;;;;;;7.90;62.35;101081.94;5092938;27;20473;-89
2022/04/20 06:25:20;;;;;;;19.20;12.45;;;;;;;7.83;62.50;101086.41;5121244;27;20030;-90
2022/04/20 06:27:45;;;;;;;19.50;12.73;;;;;;;7.88;62.21;101092.28;5084169;27;20062;-83
2022/04/20 06:30:11;;;;;;;20.27;13.57;;;;;;;7.88;62.50;101068.28;5109994;27;20023;-83
2022/04/20 06:32:37;;;;;;;33.17;21.45;;;;;;;7.92;62.46;101064.69;5074444;27;20023;-87
2022/04/20 06:35:03;;;;;;;22.48;15.80;;;;;;;7.74;62.03;101032.63;5086331;27;20151;-87
2022/04/20 06:37:28;;;;;;;22.45;15.80;;;;;;;7.86;62.59;101041.69;5099213;28;20037;-85
2022/04/20 06:39:57;;;;;;;19.92;14.35;;;;;;;7.90;62.53;101038.16;5089675;27;20027;-83
2022/04/20 06:42:22;;;;;;;20.25;14.07;;;;;;;8.07;62.66;101063.38;5092819;27;20076;-82
2022/04/20 06:44:48;;;;;;;20.65;13.80;;;;;;;7.85;62.54;101043.41;5099296;27;20047;-85
2022/04/20 06:47:14;;;;;;;17.80;12.82;;;;;;;7.99;62.06;101061.03;5088065;27;20038;-83
2022/04/20 06:49:41;;;;;;;17.42;13.13;;;;;;;7.96;62.63;101046.53;5103639;27;20065;-84
2022/04/20 07:00:19;;;;;;;18.88;12.48;;;;;;;7.92;62.23;101095.59;5093331;27;20065;-85
2022/04/20 07:02:46;;;;;;;14.82;10.77;;;;;;;7.94;61.81;101086.09;5068462;27;20412;-87
2022/04/20 07:05:11;;;;;;;17.33;10.70;;;;;;;7.92;61.67;101085.31;5084457;27;20026;-86
2022/04/20 07:07:37;;;;;;;15.18;10.73;;;;;;;7.97;61.86;101092.00;5104422;27;20023;-87
2022/04/20 07:10:04;;;;;;;13.63;10.45;;;;;;;7.90;61.76;101102.53;5083762;27;20023;-91
2022/04/20 07:12:29;;;;;;;13.65;10.45;;;;;;;8.00;61.49;101111.69;5069953;27;20031;-88
2022/04/20 07:14:55;;;;;;;14.75;10.82;;;;;;;8.09;61.89;101113.97;5070921;27;20648;-88
2022/04/20 07:17:20;;;;;;;16.80;11.02;;;;;;;8.11;61.94;101109.63;5089330;27;20102;-83
2022/04/20 07:19:46;;;;;;;20.75;14.88;;;;;;;8.21;61.68;101110.19;5098246;27;20035;-92
2022/04/20 07:22:11;;;;;;;14.35;10.80;;;;;;;8.24;61.43;101110.06;5074754;27;20055;-87
2022/04/20 07:24:37;;;;;;;13.30;10.48;;;;;;;8.18;63.63;101103.38;5098605;27;20023;-85
2022/04/20 07:27:02;;;;;;;14.35;10.65;;;;;;;8.02;61.51;101100.44;5100641;27;20161;-91
2022/04/20 07:29:28;;;;;;;15.10;11.13;;;;;;;8.06;62.11;101093.44;5083129;27;20438;-87
2022/04/20 07:31:53;;;;;;;19.63;11.50;;;;;;;8.20;62.46;101104.19;5080134;27;20039;-84
2022/04/20 07:34:19;;;;;;;14.15;10.45;;;;;;;8.08;62.09;101101.16;5083900;27;20031;-82
2022/04/20 07:36:45;;;;;;;14.65;10.38;;;;;;;7.98;62.41;101105.75;5083298;27;20039;-88
2022/04/20 07:39:10;;;;;;;15.07;10.27;;;;;;;7.89;62.40;101106.03;5086562;28;20024;-85
2022/04/20 07:41:38;;;;;;;23.42;16.23;;;;;;;7.87;62.83;101089.78;5084328;27;20507;-89
2022/04/20 07:44:04;;;;;;;18.70;14.25;;;;;;;8.11;63.91;101106.19;5084625;27;20027;-85
2022/04/20 07:46:30;;;;;;;16.13;11.52;;;;;;;8.16;62.61;101100.03;5110699;27;20031;-89
2022/04/20 07:48:55;;;;;;;15.60;10.82;;;;;;;8.22;62.47;101110.13;5082938;27;20480;-83
2022/04/20 07:51:21;;;;;;;15.57;11.45;;;;;;;8.25;62.76;101115.16;5080926;27;20099;-82
2022/04/20 07:53:46;;;;;;;15.77;11.07;;;;;;;8.28;62.05;101099.63;5070479;27;20190;-85
2022/04/20 07:56:12;;;;;;;15.05;11.30;;;;;;;8.40;61.84;101121.63;5080460;27;20833;-89
2022/04/20 07:58:40;;;;;;;17.98;12.20;;;;;;;8.39;61.74;101117.38;5069762;27;20042;-85
2022/04/20 08:01:05;;;;;;;18.73;13.30;;;;;;;8.46;61.54;101126.59;5099641;27;20031;-90
2022/04/20 08:03:31;;;;;;;20.67;14.77;;;;;;;8.33;61.76;101120.09;5102483;27;20058;-91
2022/04/20 08:05:59;;;;;;;23.75;15.80;;;;;;;8.40;61.92;101133.66;5086574;27;20027;-90
2022/04/20 08:08:24;;;;;;;21.83;16.02;;;;;;;8.43;61.99;101128.41;5090692;27;20022;-89
2022/04/20 08:10:50;;;;;;;19.13;13.48;;;;;;;8.18;61.76;101102.53;5066889;27;20051;-87
2022/04/20 08:14:16;;;;;;;20.98;14.32;;;;;;;8.26;62.27;101106.56;5098675;27;20592;-85
2022/04/20 08:16:10;;;;;;;21.08;14.43;;;;;;;8.30;63.03;101125.34;5089460;27;20039;-86
2022/04/20 08:18:35;;;;;;;22.08;14.85;;;;;;;8.46;61.81;101128.34;5085315;28;20042;-90
2022/04/20 08:21:02;;;;;;;21.15;14.18;;;;;;;8.30;61.73;101097.84;5085954;27;20027;-90
2022/04/20 08:23:31;;;;;;;23.80;16.05;;;;;;;8.44;61.84;101114.63;5083459;28;20404;-95
2022/04/20 08:25:57;;;;;;;18.40;13.57;;;;;;;8.45;61.04;101116.31;5103219;28;20027;-92
2022/04/20 08:28:23;;;;;;;23.95;15.77;;;;;;;8.48;61.43;101111.06;5085523;28;20034;-92
2022/04/20 08:30:50;;;;;;;20.92;15.10;;;;;;;8.46;60.44;101099.97;5072268;28;20024;-88
2022/04/20 08:33:16;;;;;;;19.65;14.23;;;;;;;8.58;60.34;101104.72;5097720;28;20034;-88
2022/04/20 08:35:41;;;;;;;25.48;15.88;;;;;;;8.59;60.60;101081.44;5087656;28;20039;-86
2022/04/20 08:38:07;;;;;;;28.30;19.02;;;;;;;8.65;60.67;101087.28;5087994;28;20077;-84
2022/04/20 08:40:33;;;;;;;22.73;16.40;;;;;;;8.64;60.09;101060.66;5073185;27;20034;-88
2022/04/20 08:43:03;;;;;;;24.13;16.55;;;;;;;8.67;59.83;101067.47;5104373;27;20028;-85
2022/04/20 08:45:29;;;;;;;24.65;15.55;;;;;;;8.76;59.91;101070.56;5110969;27;20036;-85
2022/04/20 08:47:56;;;;;;;26.02;17.35;;;;;;;8.89;59.46;101058.91;5083987;27;20597;-85
2022/04/20 08:50:22;;;;;;;25.23;17.00;;;;;;;8.91;59.08;101054.53;5083945;27;20023;-88
2022/04/20 08:52:50;;;;;;;24.92;15.80;;;;;;;9.02;59.92;101066.22;5087819;27;20085;-84
2022/04/20 08:55:17;;;;;;;26.92;15.68;;;;;;;9.04;59.08;101072.16;5106188;27;20023;-85
2022/04/20 08:57:44;;;;;;;22.33;15.38;;;;;;;9.09;58.86;101072.88;5096202;27;20364;-87
2022/04/20 09:00:17;;;;;;;25.35;15.73;;;;;;;9.27;59.21;101092.84;5073643;27;20116;-84
2022/04/20 09:02:42;;;;;;;21.60;14.05;;;;;;;9.28;59.49;101098.88;5091181;27;20719;-82
2022/04/20 09:05:08;;;;;;;20.10;14.15;;;;;;;9.34;59.15;101103.78;5084072;27;20071;-84
2022/04/20 09:07:34;;;;;;;21.90;15.93;;;;;;;9.37;59.39;101086.47;5088010;27;20420;-87
2022/04/20 09:10:00;;;;;;;18.25;13.32;;;;;;;9.22;58.98;101081.84;5082691;27;20041;-86
2022/04/20 09:12:26;;;;;;;20.60;14.15;;;;;;;9.18;58.71;101072.53;5092886;27;20528;-86
2022/04/20 09:14:52;;;;;;;20.58;14.90;;;;;;;9.23;58.76;101088.69;5094697;27;20031;-85
2022/04/20 09:17:19;;;;;;;20.58;13.48;;;;;;;9.37;58.48;101091.63;5082245;28;20024;-86
2022/04/20 09:19:46;;;;;;;20.67;13.77;;;;;;;9.42;58.47;101089.69;5093707;28;20032;-85
2022/04/20 09:22:18;;;;;;;19.58;13.07;;;;;;;9.43;58.00;101083.63;5100210;27;20031;-87
2022/04/20 09:25:06;;;;;;;25.30;16.00;;;;;;;9.62;58.70;101090.72;5112519;27;20023;-87
2022/04/20 09:27:36;;;;;;;19.70;14.02;;;;;;;9.52;59.12;101092.78;5129635;27;20484;-88
2022/04/20 09:30:02;;;;;;;21.77;13.50;;;;;;;9.46;59.17;101088.72;5073468;28;20028;-89
2022/04/20 09:32:41;;;;;;;20.00;13.85;;;;;;;9.38;58.49;101097.63;5057914;28;20027;-87
2022/04/20 09:35:12;;;;;;;17.45;12.23;;;;;;;9.35;58.53;101090.84;5084838;28;20024;-88
2022/04/20 09:37:38;;;;;;;14.52;11.63;;;;;;;9.46;58.37;101109.38;5093987;28;20028;-90
2022/04/20 09:40:05;;;;;;;19.33;14.27;;;;;;;9.47;59.06;101116.22;5096388;27;20476;-90
2022/04/20 09:42:32;;;;;;;17.63;11.45;;;;;;;9.28;58.56;101094.53;5097301;27;20035;-85
2022/04/20 09:45:07;;;;;;;19.38;12.07;;;;;;;9.40;58.84;101114.75;5092387;27;20016;-85
2022/04/20 09:50:22;;;;;;;17.60;11.77;;;;;;;9.42;59.60;101125.84;5118327;27;20079;-94
2022/04/20 09:52:48;;;;;;;15.73;11.27;;;;;;;9.40;59.24;101099.25;5093153;28;20049;-84
2022/04/20 09:55:15;;;;;;;18.92;13.93;;;;;;;9.57;59.24;101105.56;5094582;28;20055;-84
2022/04/20 09:57:41;;;;;;;19.25;13.38;;;;;;;9.47;58.97;101103.31;5078295;27;20046;-86
2022/04/20 10:00:15;;;;;;;20.02;11.43;;;;;;;9.58;59.60;101114.97;5094713;27;20035;-85
2022/04/20 10:02:48;;;;;;;15.05;11.35;;;;;;;9.54;59.13;101105.63;5097713;27;20016;-86
2022/04/20 10:05:17;;;;;;;16.73;11.57;;;;;;;9.63;59.62;101100.13;5097079;27;20043;-83
2022/04/20 10:07:43;;;;;;;13.05;10.07;;;;;;;9.61;58.98;101095.03;5096667;27;20023;-85
2022/04/20 10:10:09;;;;;;;16.38;11.07;;;;;;;9.70;58.61;101107.59;5113268;27;20041;-82
2022/04/20 10:12:37;;;;;;;14.55;10.82;;;;;;;9.67;59.67;101106.88;5080610;27;20092;-84
2022/04/20 10:17:47;;;;;;;14.10;10.43;;;;;;;9.54;59.31;101101.34;5100865;27;20038;-82
2022/04/20 10:20:12;;;;;;;13.57;10.75;;;;;;;9.58;59.71;101118.41;5096543;27;20023;-84
2022/04/20 10:22:39;;;;;;;13.18;10.63;;;;;;;9.51;60.91;101114.34;5095805;27;20456;-84
2022/04/20 10:25:05;;;;;;;16.08;10.82;;;;;;;9.61;60.48;101122.59;5096802;27;20627;-83
2022/04/20 10:27:49;;;;;;;15.23;10.43;;;;;;;9.47;60.85;101095.56;5079980;27;20400;-81
2022/04/20 10:30:50;;;;;;;13.00;10.95;;;;;;;9.57;59.85;101115.88;5132376;27;20023;-80
2022/04/20 10:33:16;;;;;;;15.40;12.30;;;;;;;9.40;61.19;101080.34;5131809;27;20027;-81
2022/04/20 10:35:55;;;;;;;15.00;10.82;;;;;;;9.59;60.65;101114.91;5093194;28;20031;-88
2022/04/20 10:38:20;;;;;;;15.13;11.43;;;;;;;9.46;62.33;101113.69;5096101;27;20127;-83
2022/04/20 10:40:59;;;;;;;16.48;11.38;;;;;;;9.57;63.10;101121.88;5096389;27;20214;-87
2022/04/20 10:43:25;;;;;;;14.63;11.23;;;;;;;9.53;62.14;101114.28;5113074;27;20098;-81
2022/04/20 10:46:07;;;;;;;14.50;11.23;;;;;;;9.58;62.80;101118.41;5113163;27;20432;-82
2022/04/20 10:48:52;;;;;;;9.82;7.90;;;;;;;9.46;59.84;101119.69;5132148;27;20023;-82
2022/04/20 10:51:35;;;;;;;11.55;9.00;;;;;;;9.34;60.08;101107.25;5131494;27;20026;-84
2022/04/20 10:54:23;;;;;;;9.48;6.95;;;;;;;9.40;58.55;101119.91;5113679;27;20027;-81
2022/04/20 10:57:00;;;;;;;9.00;6.90;;;;;;;9.34;59.73;101127.03;5132123;27;20106;-87
2022/04/20 10:59:26;;;;;;;10.10;7.45;;;;;;;9.33;60.16;101128.75;5131905;27;20080;-83
2022/04/20 11:02:03;;;;;;;9.95;7.65;;;;;;;9.33;61.20;101152.00;5113277;27;20020;-82
2022/04/20 11:04:50;;;;;;;9.93;7.55;;;;;;;9.32;61.13;101152.91;5131135;27;20029;-81
2022/04/20 11:07:32;;;;;;;38.47;24.92;;;;;;;9.36;61.27;101161.41;5097792;27;20030;-82
2022/04/20 11:09:59;;;;;;;38.17;29.83;;;;;;;9.18;62.71;101144.81;5098488;27;20023;-80
2022/04/20 11:18:39;;;;;;;24.95;16.60;;;;;;;9.23;63.48;101140.31;5111170;28;20093;-82
2022/04/20 11:21:05;;;;;;;11.68;8.95;;;;;;;9.05;64.01;101148.72;5063445;28;20039;-86
2022/04/20 11:23:50;;;;;;;11.15;9.05;;;;;;;9.01;65.22;101142.81;5121376;27;20019;-84
2022/04/20 11:26:34;;;;;;;10.98;9.27;;;;;;;8.93;64.33;101133.63;5130263;27;20030;-86
2022/04/20 11:29:03;;;;;;;12.10;8.60;;;;;;;9.02;64.56;101141.91;5095897;27;20047;-82
2022/04/20 11:31:40;;;;;;;10.95;8.68;;;;;;;8.74;64.55;101103.28;5079386;27;20374;-80
2022/04/20 11:34:06;;;;;;;10.40;8.75;;;;;;;8.97;64.00;101137.81;5109278;27;20480;-84
2022/04/20 11:36:32;;;;;;;10.82;9.05;;;;;;;9.09;65.48;101145.13;5092777;27;20413;-83
2022/04/20 11:38:59;;;;;;;10.82;8.93;;;;;;;9.09;65.46;101155.47;5112328;27;20023;-82
2022/04/20 11:41:25;;;;;;;11.18;8.95;;;;;;;9.04;65.44;101144.44;5092152;28;20084;-84
2022/04/20 11:43:51;;;;;;;11.50;9.38;;;;;;;9.03;65.67;101130.69;5093486;27;20068;-83
2022/04/20 11:46:17;;;;;;;13.40;10.07;;;;;;;8.89;65.11;101113.09;5085480;28;20031;-82
2022/04/20 11:48:56;;;;;;;11.93;9.63;;;;;;;8.95;65.63;101132.72;5093347;27;20781;-82